Time;durP1;ratioP1;P1;durP2;ratioP2;P2;SDS_P1;SDS_P2;PMS_P1;PMS_P2;Temp;Humidity;BMP_temperature;BMP_pressure;BME280_temperature;BME280_humidity;BME280_pressure;Samples;Min_cycle;Max_cycle;Signal;HPM_P1;HPM_P2
2022/05/08 00:00:46;;;;;;;6.00;5.60;;;15.40;99.90;;;;;;6261076;28;20265;-54
2022/05/08 00:03:50;;;;;;;7.20;6.57;;;15.40;99.90;;;;;;6268183;28;20561;-54
2022/05/08 00:06:53;;;;;;;5.90;5.57;;;15.30;99.90;;;;;;6280712;28;20331;-54
2022/05/08 00:09:55;;;;;;;6.40;5.90;;;15.40;99.90;;;;;;6280590;28;20379;-54
2022/05/08 00:12:59;;;;;;;6.50;5.97;;;15.30;99.90;;;;;;6278222;28;20328;-53
2022/05/08 00:16:02;;;;;;;5.77;5.47;;;15.30;99.90;;;;;;6257008;28;20340;-54
2022/05/08 00:19:06;;;;;;;6.77;6.37;;;15.30;99.90;;;;;;6257375;28;20235;-53
2022/05/08 00:22:10;;;;;;;7.03;6.43;;;15.30;99.90;;;;;;6245282;28;20237;-51
2022/05/08 00:25:33;;;;;;;13.20;9.07;;;15.30;99.90;;;;;;6255218;28;20323;-54
2022/05/08 00:28:36;;;;;;;7.73;6.90;;;15.20;99.90;;;;;;6262971;28;20685;-54
2022/05/08 00:31:39;;;;;;;8.07;6.43;;;15.20;99.90;;;;;;6284616;28;20340;-53
2022/05/08 00:34:43;;;;;;;8.50;7.20;;;15.20;99.90;;;;;;6285730;28;20237;-54
2022/05/08 00:37:46;;;;;;;6.50;6.10;;;15.20;99.90;;;;;;6297107;28;20316;-54
2022/05/08 00:40:50;;;;;;;6.50;6.20;;;15.20;99.90;;;;;;6283529;28;20320;-54
2022/05/08 00:43:53;;;;;;;6.50;6.00;;;15.20;99.90;;;;;;6261225;28;20237;-54
2022/05/08 00:46:55;;;;;;;6.93;6.47;;;15.20;99.90;;;;;;6265311;28;20236;-54
2022/05/08 00:50:00;;;;;;;6.20;5.97;;;15.20;99.90;;;;;;6275210;28;20736;-53
2022/05/08 00:53:06;;;;;;;6.97;6.50;;;15.10;99.90;;;;;;6281634;28;20675;-53
2022/05/08 00:56:11;;;;;;;6.83;6.33;;;15.10;99.90;;;;;;6278985;28;20305;-53
2022/05/08 00:59:17;;;;;;;5.97;5.70;;;15.10;99.90;;;;;;6256038;28;20271;-52
2022/05/08 01:02:20;;;;;;;5.57;5.13;;;15.10;99.90;;;;;;6260654;28;20764;-53
2022/05/08 01:05:24;;;;;;;5.47;4.97;;;15.00;99.90;;;;;;6279598;28;20244;-54
2022/05/08 01:08:27;;;;;;;4.00;3.90;;;15.10;99.90;;;;;;6271288;28;20233;-53
2022/05/08 01:11:30;;;;;;;3.53;3.43;;;15.00;99.90;;;;;;6278510;28;20420;-54
2022/05/08 01:14:33;;;;;;;3.10;3.10;;;14.90;99.90;;;;;;6286311;28;20258;-54
2022/05/08 01:17:35;;;;;;;3.10;3.00;;;14.90;99.90;;;;;;6269697;28;20244;-54
2022/05/08 01:20:40;;;;;;;3.63;3.33;;;14.80;99.90;;;;;;6265625;28;20719;-54
2022/05/08 01:23:45;;;;;;;3.60;3.40;;;14.80;99.90;;;;;;6265629;28;20725;-54
2022/05/08 01:26:48;;;;;;;3.77;3.67;;;14.80;99.90;;;;;;6259705;28;20362;-54
2022/05/08 01:29:51;;;;;;;3.47;3.37;;;14.70;99.90;;;;;;6282959;28;20237;-53
2022/05/08 01:32:53;;;;;;;3.40;3.20;;;14.70;99.90;;;;;;6283277;28;20247;-54
2022/05/08 01:35:57;;;;;;;5.10;4.90;;;14.60;99.90;;;;;;6272307;28;20420;-53
2022/05/08 01:39:01;;;;;;;3.30;3.20;;;14.50;99.90;;;;;;6281296;28;20433;-54
2022/05/08 01:42:06;;;;;;;3.30;3.20;;;14.50;99.90;;;;;;6285686;28;20224;-54
2022/05/08 01:45:10;;;;;;;3.13;3.03;;;14.40;99.90;;;;;;6264676;28;20615;-52
2022/05/08 01:48:28;;;;;;;3.20;3.10;;;14.40;99.90;;;;;;6263321;28;20691;-53
2022/05/08 01:51:33;;;;;;;3.50;3.30;;;14.40;99.90;;;;;;6263182;28;20246;-52
2022/05/08 01:54:37;;;;;;;4.37;3.70;;;14.30;99.90;;;;;;6264556;28;20885;-53
2022/05/08 01:57:40;;;;;;;4.47;4.07;;;14.30;99.90;;;;;;6261466;28;20229;-53
2022/05/08 02:00:43;;;;;;;5.87;4.17;;;14.20;99.90;;;;;;6286658;28;20229;-52
2022/05/08 02:03:46;;;;;;;3.60;3.40;;;14.00;99.90;;;;;;6306150;28;20714;-53
2022/05/08 02:06:51;;;;;;;3.70;3.60;;;13.90;99.90;;;;;;6286942;28;20237;-54
2022/05/08 02:09:56;;;;;;;3.83;3.63;;;13.80;99.90;;;;;;6274339;28;20699;-52
2022/05/08 02:12:59;;;;;;;3.80;3.50;;;13.70;99.90;;;;;;6274136;28;20234;-53
2022/05/08 02:16:02;;;;;;;3.80;3.70;;;13.60;99.90;;;;;;6264218;28;20237;-52
2022/05/08 02:19:06;;;;;;;4.60;4.40;;;13.50;99.90;;;;;;6264375;28;20241;-53
2022/05/08 02:22:09;;;;;;;4.23;3.90;;;13.50;99.90;;;;;;6263194;28;20702;-54
2022/05/08 02:25:14;;;;;;;4.30;4.10;;;13.30;99.90;;;;;;6262015;28;20270;-52
2022/05/08 02:28:19;;;;;;;4.00;3.80;;;13.30;99.90;;;;;;6257133;28;20592;-55
2022/05/08 02:31:21;;;;;;;4.53;4.37;;;13.30;99.90;;;;;;6280940;28;20290;-53
2022/05/08 02:34:25;;;;;;;5.07;4.80;;;13.20;99.90;;;;;;6278093;28;20493;-53
2022/05/08 02:37:28;;;;;;;4.70;4.60;;;13.20;1.00;;;;;;6282721;28;20247;-53
2022/05/08 02:40:32;;;;;;;5.10;4.80;;;13.10;1.00;;;;;;6278659;28;20597;-54
2022/05/08 02:43:38;;;;;;;4.53;4.33;;;13.10;1.00;;;;;;6283022;28;20302;-55
2022/05/08 02:46:41;;;;;;;5.40;5.00;;;13.10;1.00;;;;;;6283878;28;20241;-52
2022/05/08 02:49:44;;;;;;;4.67;4.47;;;13.20;1.00;;;;;;6284020;28;20590;-53
2022/05/08 02:52:47;;;;;;;4.87;4.70;;;13.20;1.00;;;;;;6283498;28;20355;-53
2022/05/08 02:59:15;;;;;;;4.67;4.47;;;13.20;1.00;;;;;;6283490;28;20227;-54
2022/05/08 03:02:18;;;;;;;5.10;4.90;;;13.20;1.00;;;;;;6283813;28;20237;-54
2022/05/08 03:05:22;;;;;;;4.57;4.47;;;13.30;1.00;;;;;;6267651;28;20241;-54
2022/05/08 03:08:24;;;;;;;4.50;4.40;;;13.20;1.00;;;;;;6282847;28;20471;-54
2022/05/08 03:11:29;;;;;;;6.43;6.00;;;13.30;1.00;;;;;;6280996;28;20714;-53
2022/05/08 03:14:32;;;;;;;5.60;5.30;;;13.30;1.00;;;;;;6269452;28;20391;-53
2022/05/08 03:17:35;;;;;;;7.50;6.83;;;13.30;1.00;;;;;;6258263;28;20606;-52
2022/05/08 03:20:39;;;;;;;7.10;6.60;;;13.30;1.00;;;;;;6258781;28;20468;-54
2022/05/08 03:23:44;;;;;;;7.53;6.93;;;13.30;1.00;;;;;;6284133;28;20351;-54
2022/05/08 03:26:48;;;;;;;6.80;6.33;;;13.30;1.00;;;;;;6299729;28;20431;-52
2022/05/08 03:29:50;;;;;;;6.40;5.90;;;13.20;1.00;;;;;;6283725;28;20346;-53
2022/05/08 03:32:53;;;;;;;6.20;5.73;;;13.20;1.00;;;;;;6288025;28;20329;-58
2022/05/08 03:35:56;;;;;;;5.83;5.53;;;13.20;1.00;;;;;;6320269;28;20801;-52
2022/05/08 03:39:04;;;;;;;7.00;6.40;;;13.10;1.00;;;;;;6307789;28;20816;-54
2022/05/08 03:42:09;;;;;;;8.80;7.93;;;13.10;1.00;;;;;;6307232;28;20229;-55
2022/05/08 03:45:11;;;;;;;7.33;6.87;;;13.10;1.00;;;;;;6309280;28;20240;-54
2022/05/08 03:48:20;;;;;;;7.27;6.63;;;13.10;1.00;;;;;;6304554;28;20270;-53
2022/05/08 03:51:23;;;;;;;6.53;6.13;;;13.10;1.00;;;;;;6299629;28;20370;-53
2022/05/08 03:54:25;;;;;;;7.03;6.43;;;13.10;1.00;;;;;;6306500;28;20713;-55
2022/05/08 03:57:30;;;;;;;6.83;6.17;;;13.10;1.00;;;;;;6303500;28;20250;-54
2022/05/08 04:00:33;;;;;;;5.93;5.63;;;13.20;1.00;;;;;;6306935;28;20289;-54
2022/05/08 04:03:36;;;;;;;6.30;5.90;;;13.10;1.00;;;;;;6298835;28;20369;-54
2022/05/08 04:06:39;;;;;;;6.17;5.77;;;13.10;1.00;;;;;;6300171;28;20322;-56
2022/05/08 04:09:42;;;;;;;5.80;5.30;;;13.10;1.00;;;;;;6303389;28;20621;-54
2022/05/08 04:12:47;;;;;;;6.10;5.50;;;13.00;1.00;;;;;;6304680;28;20327;-54
2022/05/08 04:19:11;;;;;;;5.47;5.10;;;13.00;1.00;;;;;;6287591;28;20902;-53
2022/05/08 04:25:34;;;;;;;6.03;5.60;;;13.00;1.00;;;;;;6274586;28;20370;-54
2022/05/08 04:28:38;;;;;;;5.77;5.17;;;12.90;1.00;;;;;;6274016;28;20241;-55
2022/05/08 04:31:41;;;;;;;12.53;5.73;;;13.00;1.00;;;;;;6281157;28;20704;-54
2022/05/08 04:34:44;;;;;;;8.27;5.53;;;13.00;1.00;;;;;;6281113;28;20905;-54
2022/05/08 04:37:46;;;;;;;5.93;5.43;;;13.00;1.00;;;;;;6275932;28;20784;-53
2022/05/08 04:40:49;;;;;;;9.13;5.60;;;13.00;1.00;;;;;;6292312;28;20367;-54
2022/05/08 04:43:59;;;;;;;7.27;5.37;;;13.00;1.00;;;;;;6305855;28;20627;-53
2022/05/08 04:47:04;;;;;;;5.30;5.00;;;13.00;1.00;;;;;;6314542;28;20749;-53
2022/05/08 04:50:07;;;;;;;5.37;4.97;;;13.00;1.00;;;;;;6304108;28;20311;-54
2022/05/08 04:53:10;;;;;;;5.27;4.83;;;13.00;1.00;;;;;;6305330;28;20453;-53
2022/05/08 04:56:13;;;;;;;6.77;4.77;;;13.00;1.00;;;;;;6303944;28;20263;-55
2022/05/08 04:59:17;;;;;;;7.40;4.90;;;13.00;1.00;;;;;;6305661;28;20729;-54
2022/05/08 05:02:20;;;;;;;5.43;4.93;;;13.00;1.00;;;;;;6306020;28;20587;-55
2022/05/08 05:05:23;;;;;;;5.97;5.10;;;13.00;1.00;;;;;;6303727;28;20718;-54
2022/05/08 05:08:25;;;;;;;7.60;4.77;;;13.00;1.00;;;;;;6291875;28;20608;-53
2022/05/08 05:11:28;;;;;;;8.73;5.37;;;12.90;1.00;;;;;;6274836;28;20232;-54
2022/05/08 05:14:33;;;;;;;8.70;4.90;;;12.90;1.00;;;;;;6280681;28;20662;-53
2022/05/08 05:17:36;;;;;;;8.33;5.07;;;13.00;1.00;;;;;;6279109;28;20241;-54
2022/05/08 05:20:39;;;;;;;9.80;4.90;;;13.10;1.00;;;;;;6278369;28;20233;-54
2022/05/08 05:23:42;;;;;;;6.77;4.97;;;13.10;1.00;;;;;;6280092;28;20244;-54
2022/05/08 05:26:51;;;;;;;6.77;4.97;;;13.20;1.00;;;;;;6276124;28;20601;-53
2022/05/08 05:29:56;;;;;;;6.63;4.50;;;13.10;1.00;;;;;;6280611;28;20946;-54
2022/05/08 05:32:59;;;;;;;8.07;5.20;;;13.20;1.00;;;;;;6272078;28;20736;-55
2022/05/08 05:36:02;;;;;;;6.87;4.70;;;13.40;1.00;;;;;;6280136;28;20725;-54
2022/05/08 05:39:05;;;;;;;5.23;4.70;;;13.60;1.00;;;;;;6279643;28;20225;-53
2022/05/08 05:42:08;;;;;;;10.07;4.80;;;13.80;1.00;;;;;;6274560;28;20382;-54
2022/05/08 05:45:12;;;;;;;7.47;4.67;;;14.00;1.00;;;;;;6281383;28;20346;-54
2022/05/08 05:48:14;;;;;;;6.23;4.67;;;14.20;1.00;;;;;;6294009;28;20906;-53
2022/05/08 05:51:18;;;;;;;5.10;4.57;;;14.50;99.90;;;;;;6301670;28;20243;-60
2022/05/08 05:54:22;;;;;;;8.10;4.87;;;14.60;99.90;;;;;;6306713;28;20360;-54
2022/05/08 05:57:24;;;;;;;12.87;5.07;;;14.60;99.90;;;;;;6299781;28;20323;-54
2022/05/08 06:00:28;;;;;;;9.07;4.30;;;14.80;99.90;;;;;;6305849;28;20622;-54
2022/05/08 06:03:33;;;;;;;6.20;4.53;;;14.90;99.90;;;;;;6308404;28;20229;-55
2022/05/08 06:06:35;;;;;;;7.40;4.47;;;15.00;99.90;;;;;;6281422;28;20253;-54
2022/05/08 06:09:38;;;;;;;5.23;3.90;;;15.30;99.90;;;;;;6264476;28;20486;-54
2022/05/08 06:12:41;;;;;;;5.67;4.10;;;15.70;99.90;;;;;;6281986;28;20288;-54
2022/05/08 06:15:45;;;;;;;14.37;4.57;;;15.90;99.90;;;;;;6307286;28;20232;-54
2022/05/08 06:18:48;;;;;;;8.23;4.60;;;16.00;99.90;;;;;;6305917;28;20244;-54
2022/05/08 06:21:51;;;;;;;11.00;4.40;;;16.40;99.90;;;;;;6308110;28;20236;-54
2022/05/08 06:24:54;;;;;;;9.97;4.27;;;16.60;99.90;;;;;;6306428;28;20365;-54
2022/05/08 06:28:00;;;;;;;7.90;4.03;;;16.70;99.90;;;;;;6296545;28;20917;-54
2022/05/08 06:31:04;;;;;;;10.17;4.13;;;17.00;99.90;;;;;;6308910;28;20378;-54
2022/05/08 06:34:08;;;;;;;7.13;4.20;;;17.10;99.90;;;;;;6316472;28;20232;-55
2022/05/08 06:37:12;;;;;;;11.70;4.37;;;17.30;99.90;;;;;;6298884;28;20251;-54
2022/05/08 06:40:14;;;;;;;9.03;4.57;;;17.40;99.90;;;;;;6309145;28;20266;-54
2022/05/08 06:43:17;;;;;;;7.83;4.10;;;17.50;99.90;;;;;;6307955;28;20327;-54
2022/05/08 06:46:21;;;;;;;9.47;4.10;;;17.40;99.90;;;;;;6309619;28;20972;-54
2022/05/08 06:49:24;;;;;;;7.87;4.33;;;17.50;99.90;;;;;;6303016;28;20241;-53
2022/05/08 06:52:27;;;;;;;10.07;4.07;;;17.30;99.90;;;;;;6283982;28;20324;-54
2022/05/08 06:55:29;;;;;;;6.80;4.50;;;17.30;99.90;;;;;;6294982;28;21249;-55
2022/05/08 07:01:34;;;;;;;8.93;3.77;;;17.40;99.90;;;;;;6286698;28;20383;-55
2022/05/08 07:01:55;;;;;;;9.40;3.83;;;17.40;99.90;;;;;;6276560;28;20246;-55
2022/05/08 07:04:58;;;;;;;9.07;4.20;;;17.50;99.90;;;;;;6282544;28;20241;-55
2022/05/08 07:08:01;;;;;;;8.17;4.30;;;17.70;99.90;;;;;;6281229;28;20516;-54
2022/05/08 07:11:03;;;;;;;9.30;5.03;;;17.90;99.90;;;;;;6278403;28;20496;-54
2022/05/08 07:14:06;;;;;;;10.97;4.30;;;17.80;99.90;;;;;;6293892;28;20240;-54
2022/05/08 07:17:10;;;;;;;5.70;3.80;;;17.90;99.90;;;;;;6307946;28;20243;-53
2022/05/08 07:20:13;;;;;;;6.50;4.33;;;18.10;99.90;;;;;;6311761;28;20321;-55
2022/05/08 07:23:16;;;;;;;4.47;4.07;;;18.00;99.90;;;;;;6307363;28;20238;-54
2022/05/08 07:26:18;;;;;;;8.23;4.57;;;17.80;99.90;;;;;;6306149;28;20363;-54
2022/05/08 07:29:21;;;;;;;6.77;4.00;;;17.50;99.90;;;;;;6304387;28;20613;-53
2022/05/08 07:32:25;;;;;;;8.23;4.03;;;17.50;99.90;;;;;;6303507;28;20266;-54
2022/05/08 07:38:49;;;;;;;11.07;5.03;;;17.60;99.90;;;;;;6305359;28;20707;-53
2022/05/08 07:41:52;;;;;;;9.57;4.67;;;17.50;99.90;;;;;;6304099;28;20244;-55
2022/05/08 07:44:55;;;;;;;13.60;5.47;;;17.50;99.90;;;;;;6311477;28;20824;-55
2022/05/08 07:47:59;;;;;;;10.67;5.57;;;17.50;99.90;;;;;;6303088;28;20250;-54
2022/05/08 07:51:02;;;;;;;12.20;5.40;;;17.50;99.90;;;;;;6305617;28;20253;-54
2022/05/08 07:54:07;;;;;;;9.73;5.20;;;17.40;99.90;;;;;;6302086;27;20244;-53
2022/05/08 07:57:10;;;;;;;10.07;5.40;;;17.20;99.90;;;;;;6282665;28;20575;-55
2022/05/08 08:00:14;;;;;;;9.67;5.07;;;17.20;99.90;;;;;;6297372;28;20232;-54
2022/05/08 08:03:18;;;;;;;10.70;4.57;;;17.00;99.90;;;;;;6287401;28;20248;-54
2022/05/08 08:06:21;;;;;;;14.00;4.70;;;16.80;99.90;;;;;;6292283;28;20240;-54
2022/05/08 08:09:24;;;;;;;9.13;4.20;;;16.80;99.90;;;;;;6281520;28;20327;-54
2022/05/08 08:12:26;;;;;;;7.67;4.00;;;16.70;99.90;;;;;;6275960;28;20237;-53
2022/05/08 08:15:29;;;;;;;6.03;3.60;;;16.70;99.90;;;;;;6282285;28;20233;-54
2022/05/08 08:18:33;;;;;;;8.73;3.90;;;16.60;99.90;;;;;;6288498;28;20587;-54
2022/05/08 08:21:42;;;;;;;6.43;4.10;;;16.70;99.90;;;;;;6278441;28;20712;-54
2022/05/08 08:24:46;;;;;;;8.03;4.60;;;16.80;99.90;;;;;;6293979;28;20323;-54
2022/05/08 08:27:49;;;;;;;5.17;4.20;;;17.10;99.90;;;;;;6303132;28;20485;-55
2022/05/08 08:30:52;;;;;;;7.10;4.70;;;17.10;99.90;;;;;;6307048;28;20449;-54
2022/05/08 08:33:58;;;;;;;7.60;4.50;;;17.20;99.90;;;;;;6303784;28;20267;-52
2022/05/08 08:37:00;;;;;;;13.63;5.20;;;17.20;99.90;;;;;;6304967;28;20264;-53
2022/05/08 08:40:04;;;;;;;6.80;4.43;;;16.90;99.90;;;;;;6309205;28;20334;-53
2022/05/08 08:43:09;;;;;;;10.40;4.90;;;16.80;99.90;;;;;;6305457;28;20320;-52
2022/05/08 08:49:42;;;;;;;9.70;5.37;;;17.00;99.90;;;;;;6305824;28;20233;-54
2022/05/08 08:52:46;;;;;;;10.27;4.93;;;17.10;99.90;;;;;;6294074;28;20316;-53
2022/05/08 08:55:54;;;;;;;7.73;4.30;;;17.20;99.90;;;;;;6297590;28;20228;-53
2022/05/08 08:58:56;;;;;;;12.43;4.37;;;17.30;99.90;;;;;;6304388;28;20236;-54
2022/05/08 09:01:59;;;;;;;6.57;4.50;;;17.30;99.90;;;;;;6300120;28;20510;-54
2022/05/08 09:05:07;;;;;;;6.60;4.40;;;17.30;99.90;;;;;;6306097;28;20255;-54
2022/05/08 09:08:25;;;;;;;10.70;4.90;;;17.60;99.90;;;;;;6301799;28;20233;-53
2022/05/08 09:11:37;;;;;;;6.80;4.47;;;17.70;99.90;;;;;;6299376;28;20867;-54
2022/05/08 09:14:40;;;;;;;11.37;4.10;;;17.80;99.90;;;;;;6305946;28;20232;-53
2022/05/08 09:17:46;;;;;;;6.50;4.67;;;17.80;99.90;;;;;;6302079;28;20264;-55
2022/05/08 09:20:51;;;;;;;7.20;4.00;;;17.90;99.90;;;;;;6290237;28;20228;-53
2022/05/08 09:24:07;;;;;;;6.53;4.37;;;18.00;99.90;;;;;;6279715;28;20926;-56
2022/05/08 09:27:14;;;;;;;4.40;3.57;;;18.10;99.90;;;;;;6283507;28;21121;-54
2022/05/08 09:30:19;;;;;;;8.97;4.37;;;18.20;99.30;;;;;;6291052;28;20325;-54
2022/05/08 09:33:27;;;;;;;6.53;3.90;;;18.30;96.20;;;;;;6304316;28;20279;-54
2022/05/08 09:36:31;;;;;;;8.23;3.97;;;18.40;98.10;;;;;;6283267;28;20335;-54
2022/05/08 09:39:33;;;;;;;8.20;4.10;;;18.40;94.00;;;;;;6291632;28;20225;-55
2022/05/08 09:42:37;;;;;;;7.00;3.63;;;18.40;98.20;;;;;;6279871;28;20239;-55
2022/05/08 09:45:57;;;;;;;4.53;3.47;;;18.50;93.10;;;;;;6284843;28;20243;-53
2022/05/08 09:49:01;;;;;;;3.93;3.40;;;18.30;88.90;;;;;;6288233;28;20305;-54
2022/05/08 09:52:05;;;;;;;6.53;3.60;;;18.30;92.30;;;;;;6291223;28;20314;-54
2022/05/08 09:55:09;;;;;;;7.17;3.30;;;18.30;92.10;;;;;;6278289;28;20248;-54
2022/05/08 09:58:12;;;;;;;5.10;3.43;;;18.30;92.10;;;;;;6274126;28;20713;-55
2022/05/08 10:01:16;;;;;;;6.00;3.60;;;18.50;86.60;;;;;;6285072;28;20291;-55
2022/05/08 10:04:20;;;;;;;6.30;3.47;;;18.60;80.70;;;;;;6284022;28;20690;-53
2022/05/08 10:07:26;;;;;;;4.13;2.93;;;18.70;81.70;;;;;;6280074;28;20558;-54
2022/05/08 10:13:54;;;;;;;5.23;3.10;;;18.90;59.90;;;;;;6310411;28;20336;-54
2022/05/08 10:17:04;;;;;;;2.97;2.57;;;19.00;47.10;;;;;;6303414;28;20521;-56
2022/05/08 10:20:08;;;;;;;4.80;2.90;;;19.10;50.20;;;;;;6307740;28;20367;-55
2022/05/08 10:23:35;;;;;;;8.50;3.57;;;19.00;43.30;;;;;;6307553;28;20260;-55
2022/05/08 10:26:37;;;;;;;4.47;2.70;;;19.10;41.50;;;;;;6304898;28;20322;-55
2022/05/08 10:29:40;;;;;;;4.73;2.73;;;19.10;39.50;;;;;;6309922;28;20715;-54
2022/05/08 10:32:54;;;;;;;4.57;3.10;;;19.10;44.50;;;;;;6287878;28;20679;-54
2022/05/08 10:36:17;;;;;;;8.70;3.20;;;19.20;49.30;;;;;;6311336;28;20312;-55
2022/05/08 10:39:41;;;;;;;6.47;3.10;;;19.20;46.20;;;;;;6306344;28;20229;-54
2022/05/08 10:42:44;;;;;;;7.33;2.97;;;19.20;41.70;;;;;;6302052;28;20676;-54
2022/05/08 10:45:47;;;;;;;9.07;3.87;;;19.30;45.90;;;;;;6301345;28;20256;-54
2022/05/08 10:48:54;;;;;;;5.20;3.07;;;19.40;45.40;;;;;;6305549;28;20529;-55
2022/05/08 10:52:09;;;;;;;8.83;3.47;;;19.40;37.20;;;;;;6276496;28;20240;-54
2022/05/08 10:55:15;;;;;;;4.47;3.00;;;19.40;34.90;;;;;;6291193;28;20237;-54
2022/05/08 10:58:19;;;;;;;5.33;3.10;;;19.50;30.10;;;;;;6306069;28;20718;-54
2022/05/08 11:01:23;;;;;;;3.87;2.87;;;19.50;22.40;;;;;;6300304;28;20352;-54
2022/05/08 11:04:26;;;;;;;6.10;2.90;;;19.50;27.60;;;;;;6276429;28;20250;-55
2022/05/08 11:07:29;;;;;;;4.17;2.70;;;19.50;28.20;;;;;;6280020;28;20252;-55
2022/05/08 11:10:34;;;;;;;4.87;3.00;;;19.50;20.00;;;;;;6266570;28;20716;-53
2022/05/08 11:13:46;;;;;;;8.37;3.20;;;19.50;20.00;;;;;;6280881;28;20695;-53
2022/05/08 11:16:51;;;;;;;5.17;2.73;;;19.50;20.00;;;;;;6281803;28;20813;-54
2022/05/08 11:19:55;;;;;;;5.00;2.93;;;19.60;20.00;;;;;;6281671;28;20478;-53
2022/05/08 11:22:58;;;;;;;5.50;2.83;;;19.60;20.10;;;;;;6280363;28;20229;-54
2022/05/08 11:26:05;;;;;;;4.53;2.90;;;19.60;20.10;;;;;;6280091;28;20386;-54
2022/05/08 11:29:08;;;;;;;3.27;2.97;;;19.40;19.90;;;;;;6279428;28;20710;-55
2022/05/08 11:38:56;;;;;;;3.37;2.60;;;19.60;20.00;;;;;;6277724;28;20773;-57
2022/05/08 11:42:01;;;;;;;4.57;2.60;;;19.70;20.20;;;;;;6265834;28;20971;-54
2022/05/08 11:45:08;;;;;;;4.37;2.57;;;19.80;20.20;;;;;;6283438;28;20246;-54
2022/05/08 11:48:11;;;;;;;2.97;2.60;;;19.90;20.30;;;;;;6294265;28;20948;-55
2022/05/08 11:51:15;;;;;;;6.20;3.17;;;19.90;20.30;;;;;;6284834;28;20380;-54
2022/05/08 11:54:20;;;;;;;6.13;3.00;;;20.00;20.40;;;;;;6275925;28;20225;-54
2022/05/08 11:57:25;;;;;;;4.10;2.60;;;20.10;17.30;;;;;;6274674;28;20304;-56
2022/05/08 12:00:32;;;;;;;5.70;2.80;;;20.20;17.30;;;;;;6280346;28;20275;-55
2022/05/08 12:03:34;;;;;;;8.67;3.40;;;20.10;12.70;;;;;;6279614;28;20256;-54
2022/05/08 12:06:38;;;;;;;6.97;3.37;;;20.20;15.20;;;;;;6282561;28;20241;-55
2022/05/08 12:09:52;;;;;;;3.03;2.87;;;20.30;14.50;;;;;;6277307;28;20234;-53
2022/05/08 12:13:06;;;;;;;5.13;3.10;;;20.40;15.20;;;;;;6278172;28;20237;-53
2022/05/08 12:16:12;;;;;;;4.87;3.13;;;20.50;10.90;;;;;;6285193;28;20383;-54
2022/05/08 12:19:18;;;;;;;4.37;2.93;;;20.50;9.50;;;;;;6284104;28;20760;-54
2022/05/08 12:22:23;;;;;;;4.50;3.50;;;20.40;9.80;;;;;;6280225;28;20289;-54
2022/05/08 12:25:26;;;;;;;3.17;2.80;;;20.40;9.60;;;;;;6280224;28;20329;-53
2022/05/08 12:28:43;;;;;;;6.00;3.00;;;20.40;6.80;;;;;;6272323;28;20904;-53
2022/05/08 12:31:47;;;;;;;4.33;2.93;;;20.30;5.00;;;;;;6283535;28;20233;-53
2022/05/08 12:34:50;;;;;;;2.70;2.50;;;20.20;5.00;;;;;;6280547;28;20237;-53
2022/05/08 12:37:53;;;;;;;6.20;3.30;;;20.20;5.40;;;;;;6275183;28;20290;-53
2022/05/08 12:40:58;;;;;;;3.60;3.23;;;20.20;4.90;;;;;;6279039;28;20233;-54
2022/05/08 12:44:02;;;;;;;4.30;2.80;;;20.40;6.30;;;;;;6280375;28;20233;-55
2022/05/08 12:47:09;;;;;;;3.23;2.93;;;20.30;1.90;;;;;;6277607;28;22279;-55
2022/05/08 12:50:12;;;;;;;2.70;2.50;;;20.10;3.10;;;;;;6275127;28;20290;-55
2022/05/08 12:53:15;;;;;;;5.30;3.03;;;20.20;1.00;;;;;;6296230;28;20267;-54
2022/05/08 12:56:19;;;;;;;6.53;2.80;;;20.20;3.00;;;;;;6298990;28;20324;-53
2022/05/08 13:02:43;;;;;;;3.03;2.73;;;20.20;1.00;;;;;;6277808;28;20782;-54
2022/05/08 13:05:46;;;;;;;5.07;3.00;;;20.40;1.00;;;;;;6298503;28;20243;-54
2022/05/08 13:08:49;;;;;;;4.07;2.80;;;20.40;1.00;;;;;;6303475;28;20803;-54
2022/05/08 13:11:51;;;;;;;5.50;3.20;;;20.60;1.00;;;;;;6298881;28;20263;-53
2022/05/08 13:14:55;;;;;;;2.53;2.40;;;20.50;1.00;;;;;;6298891;28;20373;-53
2022/05/08 13:17:59;;;;;;;3.87;2.73;;;20.50;1.00;;;;;;6309078;28;20453;-55
2022/05/08 13:21:02;;;;;;;3.20;2.90;;;20.50;1.00;;;;;;6302462;28;20244;-52
2022/05/08 13:24:07;;;;;;;2.67;2.47;;;20.60;1.00;;;;;;6307828;28;20239;-53
2022/05/08 13:27:09;;;;;;;2.97;2.77;;;20.80;1.00;;;;;;6295543;28;20264;-54
2022/05/08 13:30:14;;;;;;;2.83;2.63;;;20.60;1.00;;;;;;6311608;28;20318;-54
2022/05/08 13:33:17;;;;;;;2.87;2.67;;;20.70;1.00;;;;;;6302744;28;20247;-54
2022/05/08 13:36:20;;;;;;;2.80;2.60;;;20.70;1.00;;;;;;6307957;28;20735;-53
2022/05/08 13:39:24;;;;;;;3.20;2.80;;;20.80;1.00;;;;;;6303308;28;20237;-53
2022/05/08 13:42:27;;;;;;;3.30;2.80;;;20.80;1.00;;;;;;6301012;28;20636;-54
2022/05/08 13:45:31;;;;;;;3.03;2.50;;;20.70;1.00;;;;;;6304888;28;20500;-55
2022/05/08 13:48:36;;;;;;;2.83;2.53;;;20.60;1.00;;;;;;6305467;28;20233;-54
2022/05/08 13:51:39;;;;;;;2.70;2.60;;;20.50;1.00;;;;;;6303626;28;20702;-54
2022/05/08 13:54:43;;;;;;;2.93;2.83;;;20.50;1.00;;;;;;6299303;28;20469;-54
2022/05/08 13:57:46;;;;;;;2.67;2.57;;;20.70;1.00;;;;;;6298925;28;20331;-54
2022/05/08 14:00:50;;;;;;;4.23;2.30;;;20.70;1.00;;;;;;6305585;28;20657;-53
2022/05/08 14:03:52;;;;;;;3.03;2.90;;;20.70;1.00;;;;;;6299526;28;20374;-54
2022/05/08 14:06:55;;;;;;;2.73;2.60;;;20.80;1.00;;;;;;6302829;28;20254;-56
2022/05/08 14:09:58;;;;;;;4.23;2.53;;;20.90;1.00;;;;;;6298684;28;20725;-53
2022/05/08 14:13:00;;;;;;;3.20;2.90;;;21.00;1.00;;;;;;6300257;28;20792;-55
2022/05/08 14:16:05;;;;;;;3.07;2.73;;;21.00;1.00;;;;;;6304422;28;20331;-53
2022/05/08 14:19:08;;;;;;;3.13;2.93;;;21.10;1.00;;;;;;6293984;28;20235;-54
2022/05/08 14:22:10;;;;;;;3.00;2.80;;;21.00;1.00;;;;;;6308772;28;20506;-53
2022/05/08 14:25:14;;;;;;;3.00;2.70;;;20.90;1.00;;;;;;6309684;28;20310;-54
2022/05/08 14:28:17;;;;;;;4.30;3.20;;;20.80;1.00;;;;;;6302247;28;20366;-54
2022/05/08 14:38:02;;;;;;;2.80;2.60;;;21.00;1.00;;;;;;6268673;28;20469;-52
2022/05/08 14:41:05;;;;;;;2.87;2.67;;;21.10;1.00;;;;;;6280333;28;20714;-53
2022/05/08 14:44:08;;;;;;;3.07;2.80;;;21.20;1.00;;;;;;6279365;28;20333;-53
2022/05/08 14:47:13;;;;;;;3.53;3.03;;;21.00;1.00;;;;;;6271622;28;20309;-55
2022/05/08 14:50:16;;;;;;;6.17;2.73;;;20.70;1.00;;;;;;6296207;28;20224;-53
2022/05/08 14:53:19;;;;;;;2.97;2.77;;;20.70;1.00;;;;;;6297582;28;20546;-55
2022/05/08 14:56:21;;;;;;;2.70;2.60;;;20.80;1.00;;;;;;6301825;28;20392;-54
2022/05/08 14:59:30;;;;;;;4.87;3.10;;;20.80;1.00;;;;;;6278462;28;20229;-53
2022/05/08 15:02:34;;;;;;;4.60;3.17;;;20.90;1.00;;;;;;6278792;28;20719;-53
2022/05/08 15:05:38;;;;;;;3.27;3.07;;;20.90;1.00;;;;;;6280177;28;20317;-54
2022/05/08 15:08:42;;;;;;;2.87;2.67;;;21.00;1.00;;;;;;6297665;28;20394;-54
2022/05/08 15:11:45;;;;;;;3.10;2.90;;;21.10;1.00;;;;;;6294929;28;20245;-55
2022/05/08 15:14:50;;;;;;;3.73;2.97;;;21.20;1.00;;;;;;6297091;28;20650;-54
2022/05/08 15:21:21;;;;;;;3.07;2.77;;;21.40;1.00;;;;;;6270874;28;20253;-53
2022/05/08 15:24:24;;;;;;;4.57;2.97;;;21.50;1.00;;;;;;6302895;28;20343;-53
2022/05/08 15:27:26;;;;;;;3.43;3.13;;;21.60;1.00;;;;;;6281720;28;20249;-54
2022/05/08 15:30:29;;;;;;;3.70;3.40;;;21.60;1.00;;;;;;6282617;28;20241;-54
2022/05/08 15:33:35;;;;;;;3.70;3.33;;;21.60;1.00;;;;;;6279967;28;20279;-53
2022/05/08 15:36:39;;;;;;;3.43;2.60;;;21.50;1.00;;;;;;6281707;28;20371;-54
2022/05/08 15:39:42;;;;;;;3.13;2.90;;;21.30;1.00;;;;;;6288935;28;20377;-55
2022/05/08 15:42:45;;;;;;;3.20;2.80;;;21.30;1.00;;;;;;6284953;28;20390;-54
2022/05/08 15:45:48;;;;;;;3.73;2.80;;;21.40;1.00;;;;;;6281149;28;20333;-54
2022/05/08 15:48:52;;;;;;;2.80;2.53;;;21.40;1.00;;;;;;6280450;28;21300;-54
2022/05/08 15:51:54;;;;;;;3.13;2.23;;;21.40;1.00;;;;;;6275432;28;20237;-50
2022/05/08 15:54:57;;;;;;;3.20;3.00;;;21.40;1.00;;;;;;6287224;28;20256;-53
2022/05/08 15:58:00;;;;;;;3.17;2.90;;;21.40;1.00;;;;;;6294632;28;20259;-53
2022/05/08 16:01:13;;;;;;;3.17;2.57;;;21.30;1.00;;;;;;6285531;28;20740;-53
2022/05/08 16:04:17;;;;;;;3.13;2.87;;;21.20;1.00;;;;;;6283535;28;20233;-52
2022/05/08 16:07:20;;;;;;;2.77;2.67;;;21.20;1.00;;;;;;6305261;28;20237;-54
2022/05/08 16:10:23;;;;;;;3.73;3.33;;;21.40;1.00;;;;;;6283510;28;20234;-53
2022/05/08 16:23:29;;;;;;;3.00;2.80;;;20.70;1.00;;;;;;6303252;28;20325;-54
2022/05/08 16:26:35;;;;;;;2.97;2.77;;;20.50;1.00;;;;;;6295799;28;20236;-54
2022/05/08 16:29:42;;;;;;;3.27;2.93;;;20.30;1.00;;;;;;6301367;28;20605;-54
2022/05/08 16:32:44;;;;;;;6.93;2.93;;;20.20;1.00;;;;;;6307730;28;20386;-54
2022/05/08 16:35:53;;;;;;;2.80;2.70;;;20.10;1.00;;;;;;6304908;28;20421;-54
2022/05/08 16:38:56;;;;;;;5.97;3.00;;;19.90;1.00;;;;;;6304676;28;20260;-55
2022/05/08 16:41:59;;;;;;;2.90;2.67;;;19.80;1.00;;;;;;6303042;28;20703;-55
2022/05/08 16:45:02;;;;;;;2.70;2.50;;;19.70;1.00;;;;;;6305290;28;20252;-53
2022/05/08 16:48:07;;;;;;;3.50;3.10;;;19.60;1.00;;;;;;6298007;28;20655;-53
2022/05/08 16:51:11;;;;;;;3.80;2.70;;;19.50;1.00;;;;;;6307478;28;20294;-53
2022/05/08 16:54:13;;;;;;;3.73;3.03;;;19.40;1.00;;;;;;6302975;28;20377;-53